createdAt,value
2019-05-13T00:03:13.572Z,5
2019-05-13T00:08:13.914Z,5
2019-05-13T00:13:14.444Z,5
2019-05-13T00:18:14.133Z,5
2019-05-13T00:23:14.050Z,5
2019-05-13T00:28:14.180Z,5
2019-05-13T00:33:13.901Z,4
2019-05-13T00:38:14.065Z,4
2019-05-13T00:43:14.174Z,4
2019-05-13T00:48:14.077Z,3
2019-05-13T00:53:13.319Z,4
2019-05-13T00:58:13.925Z,3
2019-05-13T01:03:14.015Z,3
2019-05-13T01:08:14.258Z,4
2019-05-13T01:13:13.544Z,4
2019-05-13T01:18:14.135Z,3
2019-05-13T01:23:14.070Z,5
2019-05-13T01:28:13.442Z,4
2019-05-13T01:33:14.179Z,4
2019-05-13T01:38:13.458Z,5
2019-05-13T01:43:14.046Z,3
2019-05-13T01:48:14.051Z,3
2019-05-13T01:53:14.017Z,4
2019-05-13T01:58:14.304Z,4
2019-05-13T02:03:13.722Z,4
2019-05-13T02:08:14.055Z,4
2019-05-13T02:13:14.588Z,3
2019-05-13T02:18:13.429Z,5
2019-05-13T02:23:14.334Z,4
2019-05-13T02:28:13.792Z,4
2019-05-13T02:33:13.124Z,4
2019-05-13T02:38:22.509Z,3
2019-05-13T02:43:13.529Z,4
2019-05-13T02:48:12.707Z,4
2019-05-13T02:53:13.564Z,4
2019-05-13T02:58:12.570Z,4
2019-05-13T03:03:12.946Z,4
2019-05-13T03:08:12.849Z,4
2019-05-13T03:13:12.729Z,4
2019-05-13T03:18:13.228Z,3
2019-05-13T03:23:13.369Z,4
2019-05-13T03:28:13.382Z,4
2019-05-13T03:33:18.486Z,4
2019-05-13T03:38:12.833Z,4
2019-05-13T03:43:12.940Z,4
2019-05-13T03:48:12.301Z,4
2019-05-13T03:53:12.962Z,4
2019-05-13T03:58:13.033Z,5
2019-05-13T04:03:13.466Z,4
2019-05-13T04:08:13.175Z,4
2019-05-13T04:13:12.475Z,3
2019-05-13T04:18:12.612Z,4
2019-05-13T04:23:12.929Z,4
2019-05-13T04:28:13.278Z,4
2019-05-13T04:33:13.823Z,4
2019-05-13T04:38:12.968Z,4
2019-05-13T04:43:12.947Z,3
2019-05-13T04:48:12.841Z,4
2019-05-13T04:53:13.599Z,4
2019-05-13T04:58:12.917Z,5
2019-05-13T05:03:13.600Z,4
2019-05-13T05:08:12.195Z,5
2019-05-13T05:13:12.773Z,5
2019-05-13T05:18:12.091Z,5
2019-05-13T05:23:12.100Z,5
2019-05-13T05:28:12.099Z,5
2019-05-13T05:33:12.096Z,5
2019-05-13T05:38:12.183Z,5
2019-05-13T05:43:12.101Z,5
2019-05-13T05:48:12.112Z,5
2019-05-13T05:53:12.107Z,6
2019-05-13T05:58:12.133Z,5
2019-05-13T06:03:13.743Z,5
2019-05-13T06:08:12.102Z,5
2019-05-13T06:13:12.284Z,7
2019-05-13T06:18:12.108Z,6
2019-05-13T06:23:12.109Z,6
2019-05-13T06:28:12.474Z,5
2019-05-13T06:33:12.220Z,6
2019-05-13T06:38:12.122Z,6
2019-05-13T06:43:12.209Z,6
2019-05-13T06:48:12.109Z,6
2019-05-13T06:53:12.615Z,7
2019-05-13T06:58:12.109Z,6
2019-05-13T07:03:12.880Z,5
2019-05-13T07:08:12.285Z,6
2019-05-13T07:13:12.117Z,6
2019-05-13T07:18:12.117Z,5
2019-05-13T07:23:12.466Z,6
2019-05-13T07:28:12.760Z,6
2019-05-13T07:33:12.686Z,6
2019-05-13T07:38:12.128Z,6
2019-05-13T07:43:12.525Z,6
2019-05-13T07:48:20.846Z,5
2019-05-13T07:53:16.728Z,6
2019-05-13T07:58:12.137Z,5
2019-05-13T08:03:12.547Z,5
2019-05-13T08:08:12.150Z,5
2019-05-13T08:13:12.258Z,6
2019-05-13T08:18:12.483Z,5
2019-05-13T08:23:12.348Z,6
2019-05-13T08:28:12.539Z,5
2019-05-13T08:33:12.653Z,5
2019-05-13T08:38:12.228Z,6
2019-05-13T08:43:12.293Z,6
2019-05-13T08:48:12.867Z,6
2019-05-13T08:53:12.438Z,6
2019-05-13T08:58:12.590Z,6
2019-05-13T09:03:12.251Z,7
2019-05-13T09:08:12.167Z,6
2019-05-13T09:13:12.177Z,6
2019-05-13T09:18:12.153Z,6
2019-05-13T09:23:12.162Z,6
2019-05-13T09:28:12.528Z,7
2019-05-13T09:33:12.155Z,6
2019-05-13T09:38:12.759Z,6
2019-05-13T09:43:12.166Z,5
2019-05-13T09:48:12.909Z,5
2019-05-13T09:53:12.170Z,5
2019-05-13T09:58:12.186Z,6
2019-05-13T10:03:13.695Z,5
2019-05-13T10:08:12.574Z,4
2019-05-13T10:13:15.375Z,4
2019-05-13T10:18:12.652Z,4
2019-05-13T10:23:12.666Z,5
2019-05-13T10:28:13.250Z,4
2019-05-13T10:33:12.646Z,4
2019-05-13T10:38:13.339Z,5
2019-05-13T10:43:26.827Z,4
2019-05-13T10:48:13.392Z,5
2019-05-13T10:53:12.434Z,5
2019-05-13T10:58:12.457Z,3
2019-05-13T11:03:12.292Z,4
2019-05-13T11:08:12.218Z,4
2019-05-13T11:13:12.225Z,3
2019-05-13T11:18:18.789Z,4
2019-05-13T11:23:12.605Z,4
2019-05-13T11:28:12.417Z,4
2019-05-13T11:33:12.229Z,5
2019-05-13T11:38:12.359Z,3
2019-05-13T11:43:12.404Z,3
2019-05-13T11:48:13.125Z,4
2019-05-13T11:53:31.193Z,4
2019-05-13T11:58:13.743Z,4
2019-05-13T12:03:12.242Z,4
2019-05-13T12:08:12.774Z,5
2019-05-13T12:13:12.646Z,4
2019-05-13T12:18:12.778Z,6
2019-05-13T12:23:12.928Z,4
2019-05-13T12:28:12.239Z,4
2019-05-13T12:33:13.449Z,4
2019-05-13T12:38:13.374Z,5
2019-05-13T12:43:13.208Z,4
2019-05-13T12:48:13.887Z,4
2019-05-13T12:53:12.874Z,4
2019-05-13T12:58:12.334Z,4
2019-05-13T13:03:13.267Z,5
2019-05-13T13:08:19.090Z,5
2019-05-13T13:13:12.246Z,4
2019-05-13T13:18:14.264Z,4
2019-05-13T13:23:12.987Z,5
2019-05-13T13:28:15.369Z,5
2019-05-13T13:33:14.868Z,4
2019-05-13T13:38:12.248Z,4
2019-05-13T13:43:12.901Z,4
2019-05-13T13:48:13.198Z,4
2019-05-13T13:53:13.852Z,4
2019-05-13T13:58:14.114Z,4
2019-05-13T14:03:12.614Z,4
2019-05-13T14:08:12.624Z,5
2019-05-13T14:13:12.653Z,4
2019-05-13T14:18:12.249Z,4
2019-05-13T14:23:12.690Z,4
2019-05-13T14:28:16.966Z,4
2019-05-13T14:33:12.253Z,4
2019-05-13T14:38:12.262Z,5
2019-05-13T14:43:12.283Z,6
2019-05-13T14:48:12.654Z,5
2019-05-13T14:53:12.265Z,5
2019-05-13T14:58:12.265Z,5
2019-05-13T15:03:13.014Z,6
2019-05-13T15:08:12.266Z,5
2019-05-13T15:13:12.275Z,5
2019-05-13T15:18:12.267Z,5
2019-05-13T15:23:12.277Z,5
2019-05-13T15:28:12.276Z,5
2019-05-13T15:33:12.313Z,5
2019-05-13T15:38:12.661Z,5
2019-05-13T15:43:12.290Z,5
2019-05-13T15:48:12.283Z,4
2019-05-13T15:53:12.834Z,6
2019-05-13T15:58:12.287Z,5
2019-05-13T16:03:12.372Z,6
2019-05-13T16:08:12.391Z,5
2019-05-13T16:13:12.295Z,6
2019-05-13T16:18:12.302Z,5
2019-05-13T16:23:12.561Z,6
2019-05-13T16:28:12.300Z,4
2019-05-13T16:33:12.367Z,5
2019-05-13T16:38:12.298Z,6
2019-05-13T16:43:12.915Z,5
2019-05-13T16:48:12.549Z,4
2019-05-13T16:53:12.298Z,5
2019-05-13T16:58:12.636Z,5
2019-05-13T17:03:12.307Z,4
2019-05-13T17:08:12.303Z,5
2019-05-13T17:13:12.323Z,4
2019-05-13T17:18:15.241Z,4
2019-05-13T17:23:12.606Z,5
2019-05-13T17:28:13.211Z,4
2019-05-13T17:33:12.305Z,4
2019-05-13T17:38:12.302Z,4
2019-05-13T17:43:12.325Z,4
2019-05-13T17:48:25.704Z,4
2019-05-13T17:53:12.320Z,4
2019-05-13T17:58:12.307Z,4
2019-05-13T18:03:12.331Z,3
2019-05-13T18:08:12.307Z,4
2019-05-13T18:13:12.704Z,4
2019-05-13T18:18:12.312Z,3
2019-05-13T18:23:12.318Z,4
2019-05-13T18:28:26.647Z,3
2019-05-13T18:33:12.322Z,4
2019-05-13T18:38:12.306Z,4
2019-05-13T18:43:12.328Z,4
2019-05-13T18:48:12.416Z,3
2019-05-13T18:53:12.350Z,4
2019-05-13T18:58:12.325Z,4
2019-05-13T19:03:12.557Z,3
2019-05-13T19:08:12.497Z,4
2019-05-13T19:13:12.550Z,3
2019-05-13T19:18:12.424Z,4
2019-05-13T19:23:12.323Z,3
2019-05-13T19:28:12.317Z,3
2019-05-13T19:33:12.330Z,4
2019-05-13T19:38:12.327Z,3
2019-05-13T19:43:12.336Z,4
2019-05-13T19:48:12.319Z,4
2019-05-13T19:53:12.325Z,3
2019-05-13T19:58:12.571Z,4
2019-05-13T20:03:12.322Z,4
2019-05-13T20:08:12.322Z,3
2019-05-13T20:13:12.314Z,4
2019-05-13T20:18:12.315Z,3
2019-05-13T20:23:12.324Z,3
2019-05-13T20:28:12.320Z,3
2019-05-13T20:33:12.320Z,3
2019-05-13T20:38:12.329Z,3
2019-05-13T20:43:12.327Z,3
2019-05-13T20:48:12.324Z,3
2019-05-13T20:53:12.324Z,4
2019-05-13T20:58:12.876Z,3
2019-05-13T21:03:12.342Z,4
2019-05-13T21:08:12.333Z,4
2019-05-13T21:13:12.351Z,4
2019-05-13T21:18:12.340Z,4
2019-05-13T21:23:12.358Z,4
2019-05-13T21:28:12.339Z,3
2019-05-13T21:33:12.339Z,3
2019-05-13T21:38:12.343Z,3
2019-05-13T21:43:12.340Z,4
2019-05-13T21:48:12.341Z,4
2019-05-13T21:53:12.540Z,4
2019-05-13T21:58:14.087Z,4
2019-05-13T22:03:12.362Z,3
2019-05-13T22:08:12.355Z,3
2019-05-13T22:13:12.361Z,4
2019-05-13T22:18:12.346Z,3
2019-05-13T22:23:12.357Z,4
2019-05-13T22:28:12.355Z,4
2019-05-13T22:33:12.425Z,4
2019-05-13T22:38:12.485Z,4
2019-05-13T22:43:12.390Z,4
2019-05-13T22:48:14.927Z,3
2019-05-13T22:53:12.354Z,4
2019-05-13T22:58:12.351Z,4
2019-05-13T23:03:12.378Z,4
2019-05-13T23:08:12.356Z,4
2019-05-13T23:13:12.354Z,4
2019-05-13T23:18:12.357Z,4
2019-05-13T23:23:12.371Z,5
2019-05-13T23:28:12.369Z,4
2019-05-13T23:33:12.367Z,28
2019-05-13T23:38:12.366Z,81
2019-05-13T23:43:12.379Z,67
2019-05-13T23:48:12.374Z,19
2019-05-13T23:53:12.391Z,5
2019-05-13T23:58:12.378Z,4
